sensor_id;sensor_type;location;lat;lon;timestamp;temperature;humidity
53208;DHT22;39093;52.788;6.940;2023-07-08T00:00:51;19.10;91.80
53208;DHT22;39093;52.788;6.940;2023-07-08T00:03:18;19.00;91.70
53208;DHT22;39093;52.788;6.940;2023-07-08T00:05:47;19.00;91.80
53208;DHT22;39093;52.788;6.940;2023-07-08T00:08:16;18.90;91.80
53208;DHT22;39093;52.788;6.940;2023-07-08T00:10:43;18.90;91.80
53208;DHT22;39093;52.788;6.940;2023-07-08T00:13:12;18.80;91.90
53208;DHT22;39093;52.788;6.940;2023-07-08T00:15:40;18.80;91.90
53208;DHT22;39093;52.788;6.940;2023-07-08T00:18:15;18.80;92.20
53208;DHT22;39093;52.788;6.940;2023-07-08T00:20:47;18.80;92.40
53208;DHT22;39093;52.788;6.940;2023-07-08T00:23:15;18.80;92.30
53208;DHT22;39093;52.788;6.940;2023-07-08T00:25:42;18.70;92.30
53208;DHT22;39093;52.788;6.940;2023-07-08T00:28:16;18.70;92.50
53208;DHT22;39093;52.788;6.940;2023-07-08T00:30:43;18.70;92.70
53208;DHT22;39093;52.788;6.940;2023-07-08T00:33:10;18.60;92.60
53208;DHT22;39093;52.788;6.940;2023-07-08T00:35:40;18.60;92.60
53208;DHT22;39093;52.788;6.940;2023-07-08T00:40:58;18.50;92.80
53208;DHT22;39093;52.788;6.940;2023-07-08T00:43:52;18.50;92.90
53208;DHT22;39093;52.788;6.940;2023-07-08T00:51:26;18.40;93.10
53208;DHT22;39093;52.788;6.940;2023-07-08T00:53:53;18.30;93.40
53208;DHT22;39093;52.788;6.940;2023-07-08T00:56:34;18.30;93.40
53208;DHT22;39093;52.788;6.940;2023-07-08T00:59:09;18.30;94.00
53208;DHT22;39093;52.788;6.940;2023-07-08T01:01:40;18.30;93.80
53208;DHT22;39093;52.788;6.940;2023-07-08T01:04:46;18.30;94.20
53208;DHT22;39093;52.788;6.940;2023-07-08T01:07:11;18.30;94.10
53208;DHT22;39093;52.788;6.940;2023-07-08T01:09:44;18.20;93.90
53208;DHT22;39093;52.788;6.940;2023-07-08T01:12:16;18.20;94.20
53208;DHT22;39093;52.788;6.940;2023-07-08T01:14:43;18.20;94.30
53208;DHT22;39093;52.788;6.940;2023-07-08T01:17:12;18.20;94.30
53208;DHT22;39093;52.788;6.940;2023-07-08T01:19:41;18.20;94.40
53208;DHT22;39093;52.788;6.940;2023-07-08T01:22:09;18.20;94.50
53208;DHT22;39093;52.788;6.940;2023-07-08T01:24:44;18.20;94.60
53208;DHT22;39093;52.788;6.940;2023-07-08T01:27:17;18.10;94.80
53208;DHT22;39093;52.788;6.940;2023-07-08T01:29:45;18.10;94.90
53208;DHT22;39093;52.788;6.940;2023-07-08T01:32:14;18.10;95.10
53208;DHT22;39093;52.788;6.940;2023-07-08T01:34:46;18.10;95.20
53208;DHT22;39093;52.788;6.940;2023-07-08T01:37:36;18.10;95.30
53208;DHT22;39093;52.788;6.940;2023-07-08T01:40:26;18.00;95.50
53208;DHT22;39093;52.788;6.940;2023-07-08T01:42:53;18.00;95.60
53208;DHT22;39093;52.788;6.940;2023-07-08T01:45:26;18.00;95.60
53208;DHT22;39093;52.788;6.940;2023-07-08T01:47:57;17.90;95.60
53208;DHT22;39093;52.788;6.940;2023-07-08T01:50:26;17.90;95.80
53208;DHT22;39093;52.788;6.940;2023-07-08T01:52:59;17.90;95.70
53208;DHT22;39093;52.788;6.940;2023-07-08T01:55:26;17.80;95.90
53208;DHT22;39093;52.788;6.940;2023-07-08T01:57:55;17.80;96.40
53208;DHT22;39093;52.788;6.940;2023-07-08T02:00:22;17.80;96.30
53208;DHT22;39093;52.788;6.940;2023-07-08T02:02:50;17.70;96.30
53208;DHT22;39093;52.788;6.940;2023-07-08T02:05:18;17.70;96.50
53208;DHT22;39093;52.788;6.940;2023-07-08T02:07:45;17.70;96.70
53208;DHT22;39093;52.788;6.940;2023-07-08T02:10:12;17.70;96.80
53208;DHT22;39093;52.788;6.940;2023-07-08T02:12:39;17.60;97.00
53208;DHT22;39093;52.788;6.940;2023-07-08T02:15:07;17.60;97.20
53208;DHT22;39093;52.788;6.940;2023-07-08T02:17:35;17.60;97.40
53208;DHT22;39093;52.788;6.940;2023-07-08T02:20:02;17.60;97.60
53208;DHT22;39093;52.788;6.940;2023-07-08T02:22:29;17.60;97.70
53208;DHT22;39093;52.788;6.940;2023-07-08T02:24:56;17.60;97.80
53208;DHT22;39093;52.788;6.940;2023-07-08T02:27:23;17.60;97.90
53208;DHT22;39093;52.788;6.940;2023-07-08T02:29:50;17.60;98.00
53208;DHT22;39093;52.788;6.940;2023-07-08T02:32:17;17.50;98.00
53208;DHT22;39093;52.788;6.940;2023-07-08T02:34:44;17.50;98.30
53208;DHT22;39093;52.788;6.940;2023-07-08T02:37:11;17.50;98.50
53208;DHT22;39093;52.788;6.940;2023-07-08T02:39:38;17.50;98.60
53208;DHT22;39093;52.788;6.940;2023-07-08T02:42:05;17.40;98.70
53208;DHT22;39093;52.788;6.940;2023-07-08T02:44:34;17.40;98.80
53208;DHT22;39093;52.788;6.940;2023-07-08T02:47:01;17.40;99.00
53208;DHT22;39093;52.788;6.940;2023-07-08T02:49:29;17.40;98.90
53208;DHT22;39093;52.788;6.940;2023-07-08T02:51:56;17.30;99.10
53208;DHT22;39093;52.788;6.940;2023-07-08T02:54:26;17.30;99.40
53208;DHT22;39093;52.788;6.940;2023-07-08T02:56:53;17.20;99.50
53208;DHT22;39093;52.788;6.940;2023-07-08T02:59:19;17.20;99.80
53208;DHT22;39093;52.788;6.940;2023-07-08T03:01:46;17.20;99.90
53208;DHT22;39093;52.788;6.940;2023-07-08T03:04:14;17.10;99.90
53208;DHT22;39093;52.788;6.940;2023-07-08T03:06:42;17.10;99.90
53208;DHT22;39093;52.788;6.940;2023-07-08T03:09:11;17.10;99.90
53208;DHT22;39093;52.788;6.940;2023-07-08T03:11:40;17.10;99.90
53208;DHT22;39093;52.788;6.940;2023-07-08T03:14:07;17.00;99.90
53208;DHT22;39093;52.788;6.940;2023-07-08T03:16:34;17.00;99.90
53208;DHT22;39093;52.788;6.940;2023-07-08T03:19:01;17.00;99.90
53208;DHT22;39093;52.788;6.940;2023-07-08T03:21:29;16.90;99.90
53208;DHT22;39093;52.788;6.940;2023-07-08T03:23:56;16.90;99.90
53208;DHT22;39093;52.788;6.940;2023-07-08T03:26:25;16.90;99.90
53208;DHT22;39093;52.788;6.940;2023-07-08T03:28:52;16.80;99.90
53208;DHT22;39093;52.788;6.940;2023-07-08T03:31:20;16.80;99.90
53208;DHT22;39093;52.788;6.940;2023-07-08T03:33:47;16.80;99.90
53208;DHT22;39093;52.788;6.940;2023-07-08T03:36:16;16.80;99.90
53208;DHT22;39093;52.788;6.940;2023-07-08T03:38:51;16.80;99.90
53208;DHT22;39093;52.788;6.940;2023-07-08T03:41:19;16.80;99.90
53208;DHT22;39093;52.788;6.940;2023-07-08T03:43:46;16.80;99.90
53208;DHT22;39093;52.788;6.940;2023-07-08T03:46:15;16.70;99.90
53208;DHT22;39093;52.788;6.940;2023-07-08T03:48:42;16.70;99.90
53208;DHT22;39093;52.788;6.940;2023-07-08T03:51:23;16.70;99.90
53208;DHT22;39093;52.788;6.940;2023-07-08T03:53:51;16.70;99.90
53208;DHT22;39093;52.788;6.940;2023-07-08T03:56:18;16.60;99.90
53208;DHT22;39093;52.788;6.940;2023-07-08T03:58:45;16.70;99.90
53208;DHT22;39093;52.788;6.940;2023-07-08T04:01:17;16.60;99.90
53208;DHT22;39093;52.788;6.940;2023-07-08T04:03:44;16.60;99.90
53208;DHT22;39093;52.788;6.940;2023-07-08T04:06:12;16.60;99.90
53208;DHT22;39093;52.788;6.940;2023-07-08T04:08:40;16.70;99.90
53208;DHT22;39093;52.788;6.940;2023-07-08T04:11:15;16.70;99.90
53208;DHT22;39093;52.788;6.940;2023-07-08T04:13:42;16.70;99.90
53208;DHT22;39093;52.788;6.940;2023-07-08T04:16:16;16.70;99.90
53208;DHT22;39093;52.788;6.940;2023-07-08T04:18:46;16.70;99.90
53208;DHT22;39093;52.788;6.940;2023-07-08T04:21:14;16.70;99.90
53208;DHT22;39093;52.788;6.940;2023-07-08T04:23:44;16.70;99.90
53208;DHT22;39093;52.788;6.940;2023-07-08T04:26:11;16.70;99.90
53208;DHT22;39093;52.788;6.940;2023-07-08T04:28:38;16.70;99.90
53208;DHT22;39093;52.788;6.940;2023-07-08T04:31:05;16.70;99.90
53208;DHT22;39093;52.788;6.940;2023-07-08T04:33:32;16.70;99.90
53208;DHT22;39093;52.788;6.940;2023-07-08T04:35:59;16.70;99.90
53208;DHT22;39093;52.788;6.940;2023-07-08T04:38:26;16.70;99.90
53208;DHT22;39093;52.788;6.940;2023-07-08T04:40:54;16.80;99.90
53208;DHT22;39093;52.788;6.940;2023-07-08T04:43:21;16.80;99.90
53208;DHT22;39093;52.788;6.940;2023-07-08T04:45:50;16.80;99.90
53208;DHT22;39093;52.788;6.940;2023-07-08T04:48:19;16.80;99.90
53208;DHT22;39093;52.788;6.940;2023-07-08T04:50:51;16.80;99.90
53208;DHT22;39093;52.788;6.940;2023-07-08T04:53:18;16.80;99.90
53208;DHT22;39093;52.788;6.940;2023-07-08T04:55:48;16.90;99.90
53208;DHT22;39093;52.788;6.940;2023-07-08T04:58:17;16.90;99.90
53208;DHT22;39093;52.788;6.940;2023-07-08T05:00:43;16.90;99.90
53208;DHT22;39093;52.788;6.940;2023-07-08T05:03:10;16.90;99.90
53208;DHT22;39093;52.788;6.940;2023-07-08T05:05:37;16.90;99.90
53208;DHT22;39093;52.788;6.940;2023-07-08T05:08:05;16.90;99.90
53208;DHT22;39093;52.788;6.940;2023-07-08T05:10:32;16.90;99.90
53208;DHT22;39093;52.788;6.940;2023-07-08T05:13:00;16.90;99.90
53208;DHT22;39093;52.788;6.940;2023-07-08T05:15:27;17.00;99.90
53208;DHT22;39093;52.788;6.940;2023-07-08T05:17:54;17.00;99.90
53208;DHT22;39093;52.788;6.940;2023-07-08T05:20:22;17.00;99.90
53208;DHT22;39093;52.788;6.940;2023-07-08T05:22:49;17.10;99.90
53208;DHT22;39093;52.788;6.940;2023-07-08T05:25:18;17.10;99.90
53208;DHT22;39093;52.788;6.940;2023-07-08T05:27:47;17.10;99.90
53208;DHT22;39093;52.788;6.940;2023-07-08T05:30:17;17.20;99.90
53208;DHT22;39093;52.788;6.940;2023-07-08T05:32:45;17.20;99.90
53208;DHT22;39093;52.788;6.940;2023-07-08T05:35:12;17.30;99.90
53208;DHT22;39093;52.788;6.940;2023-07-08T05:37:39;17.30;99.90
53208;DHT22;39093;52.788;6.940;2023-07-08T05:40:08;17.40;99.90
53208;DHT22;39093;52.788;6.940;2023-07-08T05:42:35;17.40;99.90
53208;DHT22;39093;52.788;6.940;2023-07-08T05:45:04;17.50;99.90
53208;DHT22;39093;52.788;6.940;2023-07-08T05:47:33;17.50;99.90
53208;DHT22;39093;52.788;6.940;2023-07-08T05:50:00;17.60;99.90
53208;DHT22;39093;52.788;6.940;2023-07-08T05:52:27;17.60;99.90
53208;DHT22;39093;52.788;6.940;2023-07-08T05:54:54;17.70;99.90
53208;DHT22;39093;52.788;6.940;2023-07-08T05:57:22;17.70;99.90
53208;DHT22;39093;52.788;6.940;2023-07-08T05:59:50;17.80;99.90
53208;DHT22;39093;52.788;6.940;2023-07-08T06:02:17;17.80;99.90
53208;DHT22;39093;52.788;6.940;2023-07-08T06:04:46;17.90;99.90
53208;DHT22;39093;52.788;6.940;2023-07-08T06:07:13;17.90;99.90
53208;DHT22;39093;52.788;6.940;2023-07-08T06:09:40;18.00;99.90
53208;DHT22;39093;52.788;6.940;2023-07-08T06:12:07;18.00;99.90
53208;DHT22;39093;52.788;6.940;2023-07-08T06:14:34;18.10;99.90
53208;DHT22;39093;52.788;6.940;2023-07-08T06:17:01;18.10;99.90
53208;DHT22;39093;52.788;6.940;2023-07-08T06:19:28;18.20;99.90
53208;DHT22;39093;52.788;6.940;2023-07-08T06:21:58;18.30;99.90
53208;DHT22;39093;52.788;6.940;2023-07-08T06:24:45;18.30;99.90
53208;DHT22;39093;52.788;6.940;2023-07-08T06:27:14;18.50;99.90
53208;DHT22;39093;52.788;6.940;2023-07-08T06:29:41;18.60;99.90
53208;DHT22;39093;52.788;6.940;2023-07-08T06:32:08;18.90;99.90
53208;DHT22;39093;52.788;6.940;2023-07-08T06:34:35;19.10;99.90
53208;DHT22;39093;52.788;6.940;2023-07-08T06:37:02;19.50;99.90
53208;DHT22;39093;52.788;6.940;2023-07-08T06:39:29;19.90;99.90
53208;DHT22;39093;52.788;6.940;2023-07-08T06:41:56;20.20;99.90
53208;DHT22;39093;52.788;6.940;2023-07-08T06:44:23;20.50;99.90
53208;DHT22;39093;52.788;6.940;2023-07-08T06:46:50;20.80;99.90
53208;DHT22;39093;52.788;6.940;2023-07-08T06:49:16;21.10;99.90
53208;DHT22;39093;52.788;6.940;2023-07-08T06:51:44;21.30;99.90
53208;DHT22;39093;52.788;6.940;2023-07-08T06:54:12;21.50;99.90
53208;DHT22;39093;52.788;6.940;2023-07-08T06:56:39;21.70;99.90
53208;DHT22;39093;52.788;6.940;2023-07-08T06:59:08;21.90;99.90
53208;DHT22;39093;52.788;6.940;2023-07-08T07:01:35;22.10;99.90
53208;DHT22;39093;52.788;6.940;2023-07-08T07:04:05;22.30;99.90
53208;DHT22;39093;52.788;6.940;2023-07-08T07:06:32;22.50;99.40
53208;DHT22;39093;52.788;6.940;2023-07-08T07:08:59;22.60;98.60
53208;DHT22;39093;52.788;6.940;2023-07-08T07:11:26;22.80;97.90
53208;DHT22;39093;52.788;6.940;2023-07-08T07:13:54;22.90;97.40
53208;DHT22;39093;52.788;6.940;2023-07-08T07:16:22;22.90;97.50
53208;DHT22;39093;52.788;6.940;2023-07-08T07:18:51;23.10;97.40
53208;DHT22;39093;52.788;6.940;2023-07-08T07:21:19;23.30;98.10
53208;DHT22;39093;52.788;6.940;2023-07-08T07:23:46;23.40;98.00
53208;DHT22;39093;52.788;6.940;2023-07-08T07:26:14;23.50;98.10
53208;DHT22;39093;52.788;6.940;2023-07-08T07:28:41;23.70;97.50
53208;DHT22;39093;52.788;6.940;2023-07-08T07:31:08;23.80;96.40
53208;DHT22;39093;52.788;6.940;2023-07-08T07:33:37;23.90;95.90
53208;DHT22;39093;52.788;6.940;2023-07-08T07:36:05;24.10;95.00
53208;DHT22;39093;52.788;6.940;2023-07-08T07:38:34;24.20;94.90
53208;DHT22;39093;52.788;6.940;2023-07-08T07:41:03;24.20;95.00
53208;DHT22;39093;52.788;6.940;2023-07-08T07:43:34;24.30;95.60
53208;DHT22;39093;52.788;6.940;2023-07-08T07:46:03;24.40;96.10
53208;DHT22;39093;52.788;6.940;2023-07-08T07:48:32;24.50;95.10
53208;DHT22;39093;52.788;6.940;2023-07-08T07:50:59;24.60;94.40
53208;DHT22;39093;52.788;6.940;2023-07-08T07:53:26;24.70;94.40
53208;DHT22;39093;52.788;6.940;2023-07-08T07:56:01;24.70;94.20
53208;DHT22;39093;52.788;6.940;2023-07-08T07:58:30;24.80;93.20
53208;DHT22;39093;52.788;6.940;2023-07-08T08:00:57;24.90;94.00
53208;DHT22;39093;52.788;6.940;2023-07-08T08:03:25;25.00;92.60
53208;DHT22;39093;52.788;6.940;2023-07-08T08:05:52;25.00;92.80
53208;DHT22;39093;52.788;6.940;2023-07-08T08:08:19;25.20;92.40
53208;DHT22;39093;52.788;6.940;2023-07-08T08:10:49;25.20;92.00
53208;DHT22;39093;52.788;6.940;2023-07-08T08:13:16;25.20;91.90
53208;DHT22;39093;52.788;6.940;2023-07-08T08:15:43;25.30;92.40
53208;DHT22;39093;52.788;6.940;2023-07-08T08:18:10;25.40;92.40
53208;DHT22;39093;52.788;6.940;2023-07-08T08:20:37;25.40;92.80
53208;DHT22;39093;52.788;6.940;2023-07-08T08:23:06;25.50;92.90
53208;DHT22;39093;52.788;6.940;2023-07-08T08:25:33;25.50;92.70
53208;DHT22;39093;52.788;6.940;2023-07-08T08:28:00;25.60;92.50
53208;DHT22;39093;52.788;6.940;2023-07-08T08:30:27;25.70;92.00
53208;DHT22;39093;52.788;6.940;2023-07-08T08:32:54;25.70;92.20
53208;DHT22;39093;52.788;6.940;2023-07-08T08:35:21;25.80;92.70
53208;DHT22;39093;52.788;6.940;2023-07-08T08:37:48;25.90;92.70
53208;DHT22;39093;52.788;6.940;2023-07-08T08:40:17;25.90;91.90
53208;DHT22;39093;52.788;6.940;2023-07-08T08:42:57;26.00;91.70
53208;DHT22;39093;52.788;6.940;2023-07-08T08:45:24;26.00;91.60
53208;DHT22;39093;52.788;6.940;2023-07-08T08:48:02;26.00;91.20
53208;DHT22;39093;52.788;6.940;2023-07-08T08:53:17;26.10;90.50
53208;DHT22;39093;52.788;6.940;2023-07-08T08:55:47;26.10;90.80
53208;DHT22;39093;52.788;6.940;2023-07-08T09:01:06;26.30;90.90
53208;DHT22;39093;52.788;6.940;2023-07-08T09:03:49;26.40;88.80
53208;DHT22;39093;52.788;6.940;2023-07-08T09:06:29;26.50;89.80
53208;DHT22;39093;52.788;6.940;2023-07-08T09:09:05;26.50;90.70
53208;DHT22;39093;52.788;6.940;2023-07-08T09:14:52;26.60;89.60
53208;DHT22;39093;52.788;6.940;2023-07-08T09:17:28;26.60;89.80
53208;DHT22;39093;52.788;6.940;2023-07-08T09:20:23;26.70;90.30
53208;DHT22;39093;52.788;6.940;2023-07-08T09:28:09;26.90;89.90
53208;DHT22;39093;52.788;6.940;2023-07-08T09:30:36;27.00;88.50
53208;DHT22;39093;52.788;6.940;2023-07-08T09:33:04;27.00;90.60
53208;DHT22;39093;52.788;6.940;2023-07-08T09:35:44;27.00;90.80
53208;DHT22;39093;52.788;6.940;2023-07-08T09:38:17;27.00;90.60
53208;DHT22;39093;52.788;6.940;2023-07-08T09:40:50;27.10;90.80
53208;DHT22;39093;52.788;6.940;2023-07-08T09:43:38;27.20;90.20
53208;DHT22;39093;52.788;6.940;2023-07-08T09:46:11;27.20;90.60
53208;DHT22;39093;52.788;6.940;2023-07-08T09:48:39;27.40;90.20
53208;DHT22;39093;52.788;6.940;2023-07-08T09:51:06;27.40;90.70
53208;DHT22;39093;52.788;6.940;2023-07-08T09:53:38;27.50;89.30
53208;DHT22;39093;52.788;6.940;2023-07-08T09:56:08;27.60;88.50
53208;DHT22;39093;52.788;6.940;2023-07-08T09:58:40;27.60;90.60
53208;DHT22;39093;52.788;6.940;2023-07-08T10:01:21;27.70;88.00
53208;DHT22;39093;52.788;6.940;2023-07-08T10:03:50;27.80;89.70
53208;DHT22;39093;52.788;6.940;2023-07-08T10:06:22;27.90;90.30
53208;DHT22;39093;52.788;6.940;2023-07-08T10:08:49;28.00;89.20
53208;DHT22;39093;52.788;6.940;2023-07-08T10:11:37;28.20;89.00
53208;DHT22;39093;52.788;6.940;2023-07-08T10:16:53;28.50;88.70
53208;DHT22;39093;52.788;6.940;2023-07-08T10:19:29;28.70;87.10
53208;DHT22;39093;52.788;6.940;2023-07-08T10:25:23;28.90;85.80
53208;DHT22;39093;52.788;6.940;2023-07-08T10:31:02;29.10;85.10
53208;DHT22;39093;52.788;6.940;2023-07-08T10:42:05;29.60;82.70
53208;DHT22;39093;52.788;6.940;2023-07-08T10:50:42;30.00;81.60
53208;DHT22;39093;52.788;6.940;2023-07-08T10:56:20;30.40;82.70
53208;DHT22;39093;52.788;6.940;2023-07-08T11:04:39;30.80;76.10
53208;DHT22;39093;52.788;6.940;2023-07-08T11:09:49;31.20;77.00
53208;DHT22;39093;52.788;6.940;2023-07-08T11:12:32;31.30;78.20
53208;DHT22;39093;52.788;6.940;2023-07-08T11:23:10;32.00;75.00
53208;DHT22;39093;52.788;6.940;2023-07-08T11:25:40;32.10;76.20
53208;DHT22;39093;52.788;6.940;2023-07-08T11:28:15;32.30;73.50
53208;DHT22;39093;52.788;6.940;2023-07-08T11:30:44;32.30;76.30
53208;DHT22;39093;52.788;6.940;2023-07-08T11:33:22;32.50;75.10
53208;DHT22;39093;52.788;6.940;2023-07-08T11:35:53;32.70;74.40
53208;DHT22;39093;52.788;6.940;2023-07-08T11:38:24;33.00;71.70
53208;DHT22;39093;52.788;6.940;2023-07-08T11:43:26;33.20;71.90
53208;DHT22;39093;52.788;6.940;2023-07-08T11:45:56;33.40;73.10
53208;DHT22;39093;52.788;6.940;2023-07-08T11:48:28;33.50;73.30
53208;DHT22;39093;52.788;6.940;2023-07-08T11:50:57;33.60;70.00
53208;DHT22;39093;52.788;6.940;2023-07-08T11:56:47;33.70;67.10
53208;DHT22;39093;52.788;6.940;2023-07-08T11:59:16;33.80;69.00
53208;DHT22;39093;52.788;6.940;2023-07-08T12:01:47;34.10;66.70
53208;DHT22;39093;52.788;6.940;2023-07-08T12:04:16;34.00;67.40
53208;DHT22;39093;52.788;6.940;2023-07-08T12:06:48;34.00;67.60
53208;DHT22;39093;52.788;6.940;2023-07-08T12:09:23;34.10;67.40
53208;DHT22;39093;52.788;6.940;2023-07-08T12:11:59;34.20;68.50
53208;DHT22;39093;52.788;6.940;2023-07-08T12:14:28;34.30;67.10
53208;DHT22;39093;52.788;6.940;2023-07-08T12:16:56;34.40;70.10
53208;DHT22;39093;52.788;6.940;2023-07-08T12:19:26;34.60;67.40
53208;DHT22;39093;52.788;6.940;2023-07-08T12:21:58;34.80;67.30
53208;DHT22;39093;52.788;6.940;2023-07-08T12:24:26;34.90;65.70
53208;DHT22;39093;52.788;6.940;2023-07-08T12:26:56;35.10;64.30
53208;DHT22;39093;52.788;6.940;2023-07-08T12:29:23;35.20;66.50
53208;DHT22;39093;52.788;6.940;2023-07-08T12:31:52;35.50;64.50
53208;DHT22;39093;52.788;6.940;2023-07-08T12:34:24;35.50;63.70
53208;DHT22;39093;52.788;6.940;2023-07-08T12:36:52;35.50;64.40
53208;DHT22;39093;52.788;6.940;2023-07-08T12:39:20;35.60;63.70
53208;DHT22;39093;52.788;6.940;2023-07-08T12:41:48;35.70;63.60
53208;DHT22;39093;52.788;6.940;2023-07-08T12:44:21;35.90;64.00
53208;DHT22;39093;52.788;6.940;2023-07-08T12:46:49;36.10;64.60
53208;DHT22;39093;52.788;6.940;2023-07-08T12:49:19;36.10;62.70
53208;DHT22;39093;52.788;6.940;2023-07-08T12:51:47;36.30;65.10
53208;DHT22;39093;52.788;6.940;2023-07-08T12:54:14;36.50;62.50
53208;DHT22;39093;52.788;6.940;2023-07-08T12:56:44;36.60;61.00
53208;DHT22;39093;52.788;6.940;2023-07-08T12:59:18;36.70;61.90
53208;DHT22;39093;52.788;6.940;2023-07-08T13:01:46;36.60;63.20
53208;DHT22;39093;52.788;6.940;2023-07-08T13:04:14;36.70;61.80
53208;DHT22;39093;52.788;6.940;2023-07-08T13:06:44;36.80;61.50
53208;DHT22;39093;52.788;6.940;2023-07-08T13:09:21;36.80;61.50
53208;DHT22;39093;52.788;6.940;2023-07-08T13:11:50;37.00;59.20
53208;DHT22;39093;52.788;6.940;2023-07-08T13:14:19;37.00;59.80
53208;DHT22;39093;52.788;6.940;2023-07-08T13:16:46;37.10;63.00
53208;DHT22;39093;52.788;6.940;2023-07-08T13:19:16;37.30;59.40
53208;DHT22;39093;52.788;6.940;2023-07-08T13:21:47;37.40;58.30
53208;DHT22;39093;52.788;6.940;2023-07-08T13:24:14;37.60;58.60
53208;DHT22;39093;52.788;6.940;2023-07-08T13:26:45;37.70;58.30
53208;DHT22;39093;52.788;6.940;2023-07-08T13:29:18;37.90;59.20
53208;DHT22;39093;52.788;6.940;2023-07-08T13:31:53;37.90;59.90
53208;DHT22;39093;52.788;6.940;2023-07-08T13:34:26;38.00;58.70
53208;DHT22;39093;52.788;6.940;2023-07-08T13:36:54;38.20;56.90
53208;DHT22;39093;52.788;6.940;2023-07-08T13:39:44;38.40;54.90
53208;DHT22;39093;52.788;6.940;2023-07-08T13:42:13;38.50;54.60
53208;DHT22;39093;52.788;6.940;2023-07-08T13:44:45;38.60;54.50
53208;DHT22;39093;52.788;6.940;2023-07-08T13:47:27;38.80;55.70
53208;DHT22;39093;52.788;6.940;2023-07-08T13:50:05;39.00;53.50
53208;DHT22;39093;52.788;6.940;2023-07-08T13:52:34;38.90;53.40
53208;DHT22;39093;52.788;6.940;2023-07-08T13:55:06;39.10;53.10
53208;DHT22;39093;52.788;6.940;2023-07-08T13:57:39;39.20;53.20
53208;DHT22;39093;52.788;6.940;2023-07-08T14:00:09;39.40;54.00
53208;DHT22;39093;52.788;6.940;2023-07-08T14:02:41;39.60;52.80
53208;DHT22;39093;52.788;6.940;2023-07-08T14:05:13;39.50;54.70
53208;DHT22;39093;52.788;6.940;2023-07-08T14:07:42;39.70;52.80
53208;DHT22;39093;52.788;6.940;2023-07-08T14:10:12;39.70;53.60
53208;DHT22;39093;52.788;6.940;2023-07-08T14:12:39;40.00;51.90
53208;DHT22;39093;52.788;6.940;2023-07-08T14:15:08;40.30;51.80
53208;DHT22;39093;52.788;6.940;2023-07-08T14:17:38;40.30;51.60
53208;DHT22;39093;52.788;6.940;2023-07-08T14:20:15;40.40;51.20
53208;DHT22;39093;52.788;6.940;2023-07-08T14:22:43;40.50;51.10
53208;DHT22;39093;52.788;6.940;2023-07-08T14:25:10;40.60;52.80
53208;DHT22;39093;52.788;6.940;2023-07-08T14:27:40;40.60;50.80
53208;DHT22;39093;52.788;6.940;2023-07-08T14:30:09;40.70;51.70
53208;DHT22;39093;52.788;6.940;2023-07-08T14:32:37;40.80;49.00
53208;DHT22;39093;52.788;6.940;2023-07-08T14:37:40;40.90;51.50
53208;DHT22;39093;52.788;6.940;2023-07-08T14:40:27;41.20;51.40
53208;DHT22;39093;52.788;6.940;2023-07-08T14:43:00;41.20;51.80
53208;DHT22;39093;52.788;6.940;2023-07-08T14:45:29;41.40;53.30
53208;DHT22;39093;52.788;6.940;2023-07-08T14:47:57;41.50;52.20
53208;DHT22;39093;52.788;6.940;2023-07-08T14:50:24;41.60;51.30
53208;DHT22;39093;52.788;6.940;2023-07-08T14:52:52;41.60;51.60
53208;DHT22;39093;52.788;6.940;2023-07-08T14:55:19;41.50;49.10
53208;DHT22;39093;52.788;6.940;2023-07-08T14:57:47;41.40;50.30
53208;DHT22;39093;52.788;6.940;2023-07-08T15:00:17;41.40;51.00
53208;DHT22;39093;52.788;6.940;2023-07-08T15:02:46;41.40;50.10
53208;DHT22;39093;52.788;6.940;2023-07-08T15:05:18;41.40;49.90
53208;DHT22;39093;52.788;6.940;2023-07-08T15:07:56;41.20;49.40
53208;DHT22;39093;52.788;6.940;2023-07-08T15:10:28;41.20;50.50
53208;DHT22;39093;52.788;6.940;2023-07-08T15:12:58;41.20;49.50
53208;DHT22;39093;52.788;6.940;2023-07-08T15:15:31;41.20;49.40
53208;DHT22;39093;52.788;6.940;2023-07-08T15:17:59;41.20;49.80
53208;DHT22;39093;52.788;6.940;2023-07-08T15:20:29;41.20;51.00
53208;DHT22;39093;52.788;6.940;2023-07-08T15:22:56;41.10;49.90
53208;DHT22;39093;52.788;6.940;2023-07-08T15:25:23;41.20;50.30
53208;DHT22;39093;52.788;6.940;2023-07-08T15:27:54;41.20;49.70
53208;DHT22;39093;52.788;6.940;2023-07-08T15:30:26;41.20;52.00
53208;DHT22;39093;52.788;6.940;2023-07-08T15:32:54;41.30;49.10
53208;DHT22;39093;52.788;6.940;2023-07-08T15:35:27;41.10;48.50
53208;DHT22;39093;52.788;6.940;2023-07-08T15:37:59;40.60;47.80
53208;DHT22;39093;52.788;6.940;2023-07-08T15:40:32;40.00;49.10
53208;DHT22;39093;52.788;6.940;2023-07-08T15:43:02;39.50;48.50
53208;DHT22;39093;52.788;6.940;2023-07-08T15:45:34;38.70;49.80
53208;DHT22;39093;52.788;6.940;2023-07-08T15:48:02;38.00;48.30
53208;DHT22;39093;52.788;6.940;2023-07-08T15:50:29;37.40;49.00
53208;DHT22;39093;52.788;6.940;2023-07-08T15:52:57;36.90;48.40
53208;DHT22;39093;52.788;6.940;2023-07-08T15:55:28;36.40;50.80
53208;DHT22;39093;52.788;6.940;2023-07-08T15:58:06;36.00;51.40
53208;DHT22;39093;52.788;6.940;2023-07-08T16:00:36;35.70;50.80
53208;DHT22;39093;52.788;6.940;2023-07-08T16:03:09;35.40;51.70
53208;DHT22;39093;52.788;6.940;2023-07-08T16:05:36;35.20;52.30
53208;DHT22;39093;52.788;6.940;2023-07-08T16:08:05;35.00;52.70
53208;DHT22;39093;52.788;6.940;2023-07-08T16:10:32;34.80;52.30
53208;DHT22;39093;52.788;6.940;2023-07-08T16:13:01;34.70;52.00
53208;DHT22;39093;52.788;6.940;2023-07-08T16:15:35;34.50;52.80
53208;DHT22;39093;52.788;6.940;2023-07-08T16:18:04;34.40;52.60
53208;DHT22;39093;52.788;6.940;2023-07-08T16:20:34;34.20;52.30
53208;DHT22;39093;52.788;6.940;2023-07-08T16:23:04;34.10;52.10
53208;DHT22;39093;52.788;6.940;2023-07-08T16:25:36;34.10;52.20
53208;DHT22;39093;52.788;6.940;2023-07-08T16:28:05;34.00;52.80
53208;DHT22;39093;52.788;6.940;2023-07-08T16:30:32;33.80;55.60
53208;DHT22;39093;52.788;6.940;2023-07-08T16:32:59;33.80;53.90
53208;DHT22;39093;52.788;6.940;2023-07-08T16:35:26;33.70;53.00
53208;DHT22;39093;52.788;6.940;2023-07-08T16:37:53;33.60;53.50
53208;DHT22;39093;52.788;6.940;2023-07-08T16:40:23;33.50;54.10
53208;DHT22;39093;52.788;6.940;2023-07-08T16:42:54;33.50;54.00
53208;DHT22;39093;52.788;6.940;2023-07-08T16:45:23;33.40;53.70
53208;DHT22;39093;52.788;6.940;2023-07-08T16:47:51;33.40;53.10
53208;DHT22;39093;52.788;6.940;2023-07-08T16:50:21;33.40;52.20
53208;DHT22;39093;52.788;6.940;2023-07-08T16:52:48;33.30;52.40
53208;DHT22;39093;52.788;6.940;2023-07-08T16:55:17;33.20;54.20
53208;DHT22;39093;52.788;6.940;2023-07-08T16:57:45;33.20;53.30
53208;DHT22;39093;52.788;6.940;2023-07-08T17:00:14;33.20;53.80